sensor_id;sensor_type;location;lat;lon;timestamp;temperature;humidity
56428;DHT22;42331;53.578;9.760;2022-12-04T00:02:01;0.30;99.90
56428;DHT22;42331;53.578;9.760;2022-12-04T00:04:32;0.40;99.90
56428;DHT22;42331;53.578;9.760;2022-12-04T00:07:03;0.30;99.90
56428;DHT22;42331;53.578;9.760;2022-12-04T00:09:33;0.40;99.90
56428;DHT22;42331;53.578;9.760;2022-12-04T00:12:04;0.40;99.90
56428;DHT22;42331;53.578;9.760;2022-12-04T00:14:35;0.40;99.90
56428;DHT22;42331;53.578;9.760;2022-12-04T00:17:05;0.30;99.90
56428;DHT22;42331;53.578;9.760;2022-12-04T00:19:36;0.40;99.90
56428;DHT22;42331;53.578;9.760;2022-12-04T00:22:07;0.40;99.90
56428;DHT22;42331;53.578;9.760;2022-12-04T00:24:37;0.40;99.90
56428;DHT22;42331;53.578;9.760;2022-12-04T00:27:08;0.40;99.90
56428;DHT22;42331;53.578;9.760;2022-12-04T00:29:39;0.40;99.90
56428;DHT22;42331;53.578;9.760;2022-12-04T00:32:09;0.40;99.90
56428;DHT22;42331;53.578;9.760;2022-12-04T00:34:40;0.40;99.90
56428;DHT22;42331;53.578;9.760;2022-12-04T00:37:11;0.30;99.90
56428;DHT22;42331;53.578;9.760;2022-12-04T00:39:42;0.30;99.90
56428;DHT22;42331;53.578;9.760;2022-12-04T00:42:12;0.30;99.90
56428;DHT22;42331;53.578;9.760;2022-12-04T00:44:44;0.30;99.90
56428;DHT22;42331;53.578;9.760;2022-12-04T00:47:15;0.40;99.90
56428;DHT22;42331;53.578;9.760;2022-12-04T00:49:45;0.40;99.90
56428;DHT22;42331;53.578;9.760;2022-12-04T00:52:16;0.40;99.90
56428;DHT22;42331;53.578;9.760;2022-12-04T00:54:47;0.50;99.90
56428;DHT22;42331;53.578;9.760;2022-12-04T00:57:17;0.50;99.90
56428;DHT22;42331;53.578;9.760;2022-12-04T00:59:48;0.40;99.90
56428;DHT22;42331;53.578;9.760;2022-12-04T01:02:19;0.40;99.90
56428;DHT22;42331;53.578;9.760;2022-12-04T01:04:50;0.40;99.90
56428;DHT22;42331;53.578;9.760;2022-12-04T01:07:20;0.40;99.90
56428;DHT22;42331;53.578;9.760;2022-12-04T01:09:51;0.40;99.90
56428;DHT22;42331;53.578;9.760;2022-12-04T01:12:22;0.50;99.90
56428;DHT22;42331;53.578;9.760;2022-12-04T01:14:52;0.50;99.90
56428;DHT22;42331;53.578;9.760;2022-12-04T01:17:23;0.50;99.90
56428;DHT22;42331;53.578;9.760;2022-12-04T01:19:54;0.40;99.90
56428;DHT22;42331;53.578;9.760;2022-12-04T01:22:25;0.50;99.90
56428;DHT22;42331;53.578;9.760;2022-12-04T01:24:56;0.50;99.90
56428;DHT22;42331;53.578;9.760;2022-12-04T01:27:26;0.50;99.90
56428;DHT22;42331;53.578;9.760;2022-12-04T01:29:57;0.50;99.90
56428;DHT22;42331;53.578;9.760;2022-12-04T01:32:28;0.50;99.90
56428;DHT22;42331;53.578;9.760;2022-12-04T01:34:58;0.50;99.90
56428;DHT22;42331;53.578;9.760;2022-12-04T01:37:30;0.40;99.90
56428;DHT22;42331;53.578;9.760;2022-12-04T01:40:02;0.40;99.90
56428;DHT22;42331;53.578;9.760;2022-12-04T01:42:33;0.40;99.90
56428;DHT22;42331;53.578;9.760;2022-12-04T01:46:05;0.40;99.90
56428;DHT22;42331;53.578;9.760;2022-12-04T01:53:53;0.50;99.90
56428;DHT22;42331;53.578;9.760;2022-12-04T01:56:29;0.40;99.90
56428;DHT22;42331;53.578;9.760;2022-12-04T01:59:02;0.40;99.90
56428;DHT22;42331;53.578;9.760;2022-12-04T02:04:15;0.50;99.90
56428;DHT22;42331;53.578;9.760;2022-12-04T02:06:45;0.50;99.90
56428;DHT22;42331;53.578;9.760;2022-12-04T02:09:16;0.50;99.90
56428;DHT22;42331;53.578;9.760;2022-12-04T02:14:49;0.50;99.90
56428;DHT22;42331;53.578;9.760;2022-12-04T02:17:28;0.60;99.90
56428;DHT22;42331;53.578;9.760;2022-12-04T02:31:47;0.60;99.90
56428;DHT22;42331;53.578;9.760;2022-12-04T02:34:34;0.60;99.90
56428;DHT22;42331;53.578;9.760;2022-12-04T02:37:11;0.50;99.90
56428;DHT22;42331;53.578;9.760;2022-12-04T02:40:05;0.60;99.90
56428;DHT22;42331;53.578;9.760;2022-12-04T02:42:46;0.60;99.90
56428;DHT22;42331;53.578;9.760;2022-12-04T02:45:24;0.60;99.90
56428;DHT22;42331;53.578;9.760;2022-12-04T02:47:58;0.60;99.90
56428;DHT22;42331;53.578;9.760;2022-12-04T02:50:34;0.60;99.90
56428;DHT22;42331;53.578;9.760;2022-12-04T02:53:14;0.70;99.90
56428;DHT22;42331;53.578;9.760;2022-12-04T02:55:58;0.60;99.90
56428;DHT22;42331;53.578;9.760;2022-12-04T02:58:54;0.60;99.90
56428;DHT22;42331;53.578;9.760;2022-12-04T03:01:28;0.70;99.90
56428;DHT22;42331;53.578;9.760;2022-12-04T03:06:44;0.60;99.90
56428;DHT22;42331;53.578;9.760;2022-12-04T03:09:25;0.60;99.90
56428;DHT22;42331;53.578;9.760;2022-12-04T03:12:13;0.70;99.90
56428;DHT22;42331;53.578;9.760;2022-12-04T03:14:51;0.70;99.90
56428;DHT22;42331;53.578;9.760;2022-12-04T03:17:33;0.70;99.90
56428;DHT22;42331;53.578;9.760;2022-12-04T03:20:08;0.70;99.90
56428;DHT22;42331;53.578;9.760;2022-12-04T03:22:43;0.70;99.90
56428;DHT22;42331;53.578;9.760;2022-12-04T03:25:15;0.70;99.90
56428;DHT22;42331;53.578;9.760;2022-12-04T03:28:05;0.70;99.90
56428;DHT22;42331;53.578;9.760;2022-12-04T03:30:50;0.70;99.90
56428;DHT22;42331;53.578;9.760;2022-12-04T03:33:28;0.70;99.90
56428;DHT22;42331;53.578;9.760;2022-12-04T03:36:19;0.70;99.90
56428;DHT22;42331;53.578;9.760;2022-12-04T03:42:02;0.70;99.90
56428;DHT22;42331;53.578;9.760;2022-12-04T03:44:48;0.70;99.90
56428;DHT22;42331;53.578;9.760;2022-12-04T03:50:38;0.70;99.90
56428;DHT22;42331;53.578;9.760;2022-12-04T03:56:05;0.70;99.90
56428;DHT22;42331;53.578;9.760;2022-12-04T03:58:44;0.70;99.90
56428;DHT22;42331;53.578;9.760;2022-12-04T04:01:19;0.70;99.90
56428;DHT22;42331;53.578;9.760;2022-12-04T04:03:52;0.80;99.90
56428;DHT22;42331;53.578;9.760;2022-12-04T04:06:29;0.70;99.90
56428;DHT22;42331;53.578;9.760;2022-12-04T04:09:08;0.70;99.90
56428;DHT22;42331;53.578;9.760;2022-12-04T04:11:46;0.70;99.90
56428;DHT22;42331;53.578;9.760;2022-12-04T04:14:23;0.70;99.90
56428;DHT22;42331;53.578;9.760;2022-12-04T04:17:16;0.70;99.90
56428;DHT22;42331;53.578;9.760;2022-12-04T04:20:11;0.70;99.90
56428;DHT22;42331;53.578;9.760;2022-12-04T04:23:03;0.70;99.90
56428;DHT22;42331;53.578;9.760;2022-12-04T04:25:55;0.70;99.90
56428;DHT22;42331;53.578;9.760;2022-12-04T04:28:40;0.70;99.90
56428;DHT22;42331;53.578;9.760;2022-12-04T04:31:30;0.80;99.90
56428;DHT22;42331;53.578;9.760;2022-12-04T04:34:15;0.80;99.90
56428;DHT22;42331;53.578;9.760;2022-12-04T04:42:47;0.70;99.90
56428;DHT22;42331;53.578;9.760;2022-12-04T04:45:24;0.70;99.90
56428;DHT22;42331;53.578;9.760;2022-12-04T04:48:04;0.70;99.90
56428;DHT22;42331;53.578;9.760;2022-12-04T04:50:36;0.70;99.90
56428;DHT22;42331;53.578;9.760;2022-12-04T04:53:11;0.70;99.90
56428;DHT22;42331;53.578;9.760;2022-12-04T04:55:43;0.70;99.90
56428;DHT22;42331;53.578;9.760;2022-12-04T04:58:19;0.70;99.90
56428;DHT22;42331;53.578;9.760;2022-12-04T05:00:57;0.70;99.90
56428;DHT22;42331;53.578;9.760;2022-12-04T05:03:28;0.70;99.90
56428;DHT22;42331;53.578;9.760;2022-12-04T05:05:59;0.70;99.90
56428;DHT22;42331;53.578;9.760;2022-12-04T05:08:30;0.70;99.90
56428;DHT22;42331;53.578;9.760;2022-12-04T05:11:02;0.70;99.90
56428;DHT22;42331;53.578;9.760;2022-12-04T05:13:32;0.70;99.90
56428;DHT22;42331;53.578;9.760;2022-12-04T05:16:10;0.70;99.90
56428;DHT22;42331;53.578;9.760;2022-12-04T05:18:41;0.70;99.90
56428;DHT22;42331;53.578;9.760;2022-12-04T05:21:35;0.70;99.90
56428;DHT22;42331;53.578;9.760;2022-12-04T05:24:05;0.70;99.90
56428;DHT22;42331;53.578;9.760;2022-12-04T05:26:36;0.70;99.90
56428;DHT22;42331;53.578;9.760;2022-12-04T05:29:07;0.70;99.90
56428;DHT22;42331;53.578;9.760;2022-12-04T05:31:38;0.70;99.90
56428;DHT22;42331;53.578;9.760;2022-12-04T05:34:08;0.70;99.90
56428;DHT22;42331;53.578;9.760;2022-12-04T05:36:39;0.70;99.90
56428;DHT22;42331;53.578;9.760;2022-12-04T05:39:10;0.70;99.90
56428;DHT22;42331;53.578;9.760;2022-12-04T05:41:41;0.70;99.90
56428;DHT22;42331;53.578;9.760;2022-12-04T05:44:12;0.70;99.90
56428;DHT22;42331;53.578;9.760;2022-12-04T05:46:43;0.70;99.90
56428;DHT22;42331;53.578;9.760;2022-12-04T05:49:14;0.70;99.90
56428;DHT22;42331;53.578;9.760;2022-12-04T05:51:44;0.70;99.90
56428;DHT22;42331;53.578;9.760;2022-12-04T05:54:15;0.70;99.90
56428;DHT22;42331;53.578;9.760;2022-12-04T05:56:46;0.80;99.90
56428;DHT22;42331;53.578;9.760;2022-12-04T05:59:17;0.80;99.90
56428;DHT22;42331;53.578;9.760;2022-12-04T06:01:48;0.80;99.90
56428;DHT22;42331;53.578;9.760;2022-12-04T06:04:19;0.80;99.90
56428;DHT22;42331;53.578;9.760;2022-12-04T06:06:50;0.80;99.90
56428;DHT22;42331;53.578;9.760;2022-12-04T06:09:22;0.70;99.90
56428;DHT22;42331;53.578;9.760;2022-12-04T06:11:56;0.70;99.90
56428;DHT22;42331;53.578;9.760;2022-12-04T06:14:27;0.70;99.90
56428;DHT22;42331;53.578;9.760;2022-12-04T06:16:58;0.70;99.90
56428;DHT22;42331;53.578;9.760;2022-12-04T06:19:28;0.70;99.90
56428;DHT22;42331;53.578;9.760;2022-12-04T06:21:59;0.70;99.90
56428;DHT22;42331;53.578;9.760;2022-12-04T06:24:30;0.70;99.90
56428;DHT22;42331;53.578;9.760;2022-12-04T06:27:01;0.70;99.90
56428;DHT22;42331;53.578;9.760;2022-12-04T06:29:32;0.70;99.90
56428;DHT22;42331;53.578;9.760;2022-12-04T06:32:03;0.70;99.90
56428;DHT22;42331;53.578;9.760;2022-12-04T06:34:33;0.70;99.90
56428;DHT22;42331;53.578;9.760;2022-12-04T06:37:05;0.70;99.90
56428;DHT22;42331;53.578;9.760;2022-12-04T06:39:35;0.70;99.90
56428;DHT22;42331;53.578;9.760;2022-12-04T06:42:06;0.80;99.90
56428;DHT22;42331;53.578;9.760;2022-12-04T06:44:37;0.70;99.90
56428;DHT22;42331;53.578;9.760;2022-12-04T06:47:07;0.70;99.90
56428;DHT22;42331;53.578;9.760;2022-12-04T06:49:38;0.70;99.90
56428;DHT22;42331;53.578;9.760;2022-12-04T06:52:09;0.70;99.90
56428;DHT22;42331;53.578;9.760;2022-12-04T06:54:40;0.70;99.90
56428;DHT22;42331;53.578;9.760;2022-12-04T06:57:10;0.70;99.90
56428;DHT22;42331;53.578;9.760;2022-12-04T06:59:41;0.70;99.90
56428;DHT22;42331;53.578;9.760;2022-12-04T07:02:12;0.70;99.90
56428;DHT22;42331;53.578;9.760;2022-12-04T07:04:42;0.80;99.90
56428;DHT22;42331;53.578;9.760;2022-12-04T07:07:13;0.80;99.90
56428;DHT22;42331;53.578;9.760;2022-12-04T07:09:44;0.70;99.90
56428;DHT22;42331;53.578;9.760;2022-12-04T07:12:16;0.70;99.90
56428;DHT22;42331;53.578;9.760;2022-12-04T07:14:47;0.70;99.90
56428;DHT22;42331;53.578;9.760;2022-12-04T07:17:18;0.80;99.90
56428;DHT22;42331;53.578;9.760;2022-12-04T07:19:49;0.80;99.90
56428;DHT22;42331;53.578;9.760;2022-12-04T07:22:20;0.70;99.90
56428;DHT22;42331;53.578;9.760;2022-12-04T07:24:51;0.80;99.90
56428;DHT22;42331;53.578;9.760;2022-12-04T07:27:21;0.80;99.90
56428;DHT22;42331;53.578;9.760;2022-12-04T07:29:52;0.80;99.90
56428;DHT22;42331;53.578;9.760;2022-12-04T07:32:23;0.80;99.90
56428;DHT22;42331;53.578;9.760;2022-12-04T07:34:53;0.70;99.90
56428;DHT22;42331;53.578;9.760;2022-12-04T07:37:24;0.80;99.90
56428;DHT22;42331;53.578;9.760;2022-12-04T07:39:55;0.90;99.90
56428;DHT22;42331;53.578;9.760;2022-12-04T07:42:27;0.90;99.90
56428;DHT22;42331;53.578;9.760;2022-12-04T07:44:58;0.90;99.90
56428;DHT22;42331;53.578;9.760;2022-12-04T07:47:28;0.90;99.90
56428;DHT22;42331;53.578;9.760;2022-12-04T07:49:59;1.00;99.90
56428;DHT22;42331;53.578;9.760;2022-12-04T07:52:30;0.80;99.90
56428;DHT22;42331;53.578;9.760;2022-12-04T07:55:00;0.90;99.90
56428;DHT22;42331;53.578;9.760;2022-12-04T07:57:32;0.90;99.90
56428;DHT22;42331;53.578;9.760;2022-12-04T08:00:03;1.00;99.90
56428;DHT22;42331;53.578;9.760;2022-12-04T08:02:35;1.00;99.90
56428;DHT22;42331;53.578;9.760;2022-12-04T08:05:06;1.00;99.90
56428;DHT22;42331;53.578;9.760;2022-12-04T08:07:36;1.00;99.90
56428;DHT22;42331;53.578;9.760;2022-12-04T08:10:07;1.10;99.90
56428;DHT22;42331;53.578;9.760;2022-12-04T08:12:38;1.10;99.90
56428;DHT22;42331;53.578;9.760;2022-12-04T08:15:09;1.10;99.90
56428;DHT22;42331;53.578;9.760;2022-12-04T08:17:40;1.10;99.90
56428;DHT22;42331;53.578;9.760;2022-12-04T08:20:11;1.10;99.90
56428;DHT22;42331;53.578;9.760;2022-12-04T08:22:41;1.10;99.90
56428;DHT22;42331;53.578;9.760;2022-12-04T08:25:12;1.20;99.90
56428;DHT22;42331;53.578;9.760;2022-12-04T08:27:43;1.20;99.90
56428;DHT22;42331;53.578;9.760;2022-12-04T08:30:16;1.20;99.90
56428;DHT22;42331;53.578;9.760;2022-12-04T08:32:47;1.20;99.90
56428;DHT22;42331;53.578;9.760;2022-12-04T08:35:18;1.30;99.90
56428;DHT22;42331;53.578;9.760;2022-12-04T08:37:49;1.30;99.90
56428;DHT22;42331;53.578;9.760;2022-12-04T08:40:19;1.40;99.90
56428;DHT22;42331;53.578;9.760;2022-12-04T08:42:50;1.30;99.90
56428;DHT22;42331;53.578;9.760;2022-12-04T08:45:21;1.30;99.90
56428;DHT22;42331;53.578;9.760;2022-12-04T08:47:51;1.30;99.90
56428;DHT22;42331;53.578;9.760;2022-12-04T08:50:22;1.40;99.90
56428;DHT22;42331;53.578;9.760;2022-12-04T08:52:53;1.40;99.90
56428;DHT22;42331;53.578;9.760;2022-12-04T08:55:24;1.40;99.90
56428;DHT22;42331;53.578;9.760;2022-12-04T08:57:55;1.40;99.90
56428;DHT22;42331;53.578;9.760;2022-12-04T09:00:25;1.40;99.90
56428;DHT22;42331;53.578;9.760;2022-12-04T09:02:57;1.40;99.90
56428;DHT22;42331;53.578;9.760;2022-12-04T09:05:29;1.50;99.90
56428;DHT22;42331;53.578;9.760;2022-12-04T09:08:00;1.60;99.90
56428;DHT22;42331;53.578;9.760;2022-12-04T09:10:33;1.50;99.90
56428;DHT22;42331;53.578;9.760;2022-12-04T09:13:04;1.50;99.90
56428;DHT22;42331;53.578;9.760;2022-12-04T09:15:39;1.70;99.90
56428;DHT22;42331;53.578;9.760;2022-12-04T09:18:10;1.60;99.90
56428;DHT22;42331;53.578;9.760;2022-12-04T09:20:40;1.70;99.90
56428;DHT22;42331;53.578;9.760;2022-12-04T09:23:11;1.70;99.90
56428;DHT22;42331;53.578;9.760;2022-12-04T09:25:42;1.70;99.90
56428;DHT22;42331;53.578;9.760;2022-12-04T09:28:12;1.90;99.90
56428;DHT22;42331;53.578;9.760;2022-12-04T09:30:43;2.10;99.90
56428;DHT22;42331;53.578;9.760;2022-12-04T09:33:14;2.10;99.90
56428;DHT22;42331;53.578;9.760;2022-12-04T09:35:44;2.20;99.90
56428;DHT22;42331;53.578;9.760;2022-12-04T09:38:15;2.40;99.90
56428;DHT22;42331;53.578;9.760;2022-12-04T09:46:36;2.50;99.90
56428;DHT22;42331;53.578;9.760;2022-12-04T09:49:39;2.60;99.90
56428;DHT22;42331;53.578;9.760;2022-12-04T09:55:21;2.50;99.90
56428;DHT22;42331;53.578;9.760;2022-12-04T09:57:57;2.40;99.90
56428;DHT22;42331;53.578;9.760;2022-12-04T10:00:30;2.30;99.90
56428;DHT22;42331;53.578;9.760;2022-12-04T10:03:05;2.30;99.90
56428;DHT22;42331;53.578;9.760;2022-12-04T10:08:57;2.30;99.90
56428;DHT22;42331;53.578;9.760;2022-12-04T10:12:26;2.30;99.90
